Time;durP1;ratioP1;P1;durP2;ratioP2;P2;SDS_P1;SDS_P2;PMS_P1;PMS_P2;Temp;Humidity;BMP_temperature;BMP_pressure;BME280_temperature;BME280_humidity;BME280_pressure;Samples;Min_cycle;Max_cycle;Signal;HPM_P1;HPM_P2
2021/06/19 00:00:25;;;;;;;20.83;9.27;;;;;;;;;;765171;182;918884;-68
2021/06/19 00:02:51;;;;;;;19.63;8.17;;;;;;;;;;761213;182;918689;-68
2021/06/19 00:05:17;;;;;;;15.17;8.20;;;;;;;;;;761233;182;919538;-67
2021/06/19 00:07:43;;;;;;;14.80;8.93;;;;;;;;;;758112;183;918190;-67
2021/06/19 00:10:09;;;;;;;12.33;7.80;;;;;;;;;;770844;180;917479;-68
2021/06/19 00:12:34;;;;;;;21.93;9.40;;;;;;;;;;758869;183;919313;-67
2021/06/19 00:15:00;;;;;;;20.13;8.80;;;;;;;;;;758389;180;918191;-67
2021/06/19 00:17:26;;;;;;;14.43;8.90;;;;;;;;;;768161;183;918646;-68
2021/06/19 00:19:52;;;;;;;13.63;8.50;;;;;;;;;;760914;183;919117;-67
2021/06/19 00:22:18;;;;;;;11.93;7.70;;;;;;;;;;759237;183;919241;-67
2021/06/19 00:24:44;;;;;;;23.27;8.47;;;;;;;;;;763627;183;919795;-67
2021/06/19 00:27:09;;;;;;;25.90;9.77;;;;;;;;;;762579;182;919413;-67
2021/06/19 00:29:35;;;;;;;26.65;8.43;;;;;;;;;;760234;183;918478;-67
2021/06/19 00:32:01;;;;;;;16.43;9.37;;;;;;;;;;763780;183;918501;-67
2021/06/19 00:34:27;;;;;;;20.07;8.83;;;;;;;;;;758892;182;918409;-67
2021/06/19 00:36:53;;;;;;;14.53;8.13;;;;;;;;;;760602;182;920643;-67
2021/06/19 00:39:19;;;;;;;26.33;10.50;;;;;;;;;;761541;182;919092;-69
2021/06/19 00:41:44;;;;;;;12.20;8.20;;;;;;;;;;767484;183;917141;-67
2021/06/19 00:44:15;;;;;;;14.67;8.43;;;;;;;;;;762535;182;919599;-67
2021/06/19 00:46:41;;;;;;;22.50;9.20;;;;;;;;;;753824;185;918359;-67
2021/06/19 00:49:07;;;;;;;16.17;8.60;;;;;;;;;;762812;183;918171;-66
2021/06/19 00:51:33;;;;;;;17.40;7.60;;;;;;;;;;758892;182;922450;-67
2021/06/19 00:53:58;;;;;;;14.17;8.87;;;;;;;;;;758610;184;919189;-67
2021/06/19 00:56:24;;;;;;;20.13;9.10;;;;;;;;;;752548;184;921213;-66
2021/06/19 00:58:50;;;;;;;20.13;9.07;;;;;;;;;;751548;184;921645;-67
2021/06/19 01:01:16;;;;;;;24.83;9.17;;;;;;;;;;759547;183;918221;-67
2021/06/19 01:03:42;;;;;;;11.80;8.97;;;;;;;;;;757982;182;918360;-67
2021/06/19 01:06:08;;;;;;;14.40;9.23;;;;;;;;;;764895;183;918242;-68
2021/06/19 01:08:33;;;;;;;16.77;8.90;;;;;;;;;;760483;182;922214;-67
2021/06/19 01:10:59;;;;;;;26.00;9.52;;;;;;;;;;756621;184;1003577;-67
2021/06/19 01:13:25;;;;;;;12.67;9.00;;;;;;;;;;767973;182;919013;-68
2021/06/19 01:15:51;;;;;;;16.90;9.57;;;;;;;;;;759341;183;947572;-67
2021/06/19 01:18:17;;;;;;;16.70;9.03;;;;;;;;;;759368;183;919500;-68
2021/06/19 01:20:43;;;;;;;17.67;9.80;;;;;;;;;;765433;182;927336;-67
2021/06/19 01:23:08;;;;;;;24.10;9.60;;;;;;;;;;759976;182;917812;-67
2021/06/19 01:25:37;;;;;;;15.83;9.77;;;;;;;;;;758017;183;922013;-67
2021/06/19 01:28:00;;;;;;;25.53;8.97;;;;;;;;;;761238;182;920492;-67
2021/06/19 01:30:26;;;;;;;15.83;9.27;;;;;;;;;;767808;182;915425;-68
2021/06/19 01:32:52;;;;;;;26.33;10.17;;;;;;;;;;759532;182;917530;-66
2021/06/19 01:35:18;;;;;;;14.67;8.70;;;;;;;;;;760029;182;923767;-67
2021/06/19 01:37:43;;;;;;;13.03;10.97;;;;;;;;;;767176;182;1017714;-67
2021/06/19 01:40:09;;;;;;;19.30;9.60;;;;;;;;;;764358;182;931960;-67
2021/06/19 01:42:38;;;;;;;33.40;9.50;;;;;;;;;;761456;183;920239;-67
2021/06/19 01:45:06;;;;;;;24.25;10.45;;;;;;;;;;763596;183;955599;-67
2021/06/19 01:47:31;;;;;;;19.23;9.70;;;;;;;;;;761365;182;918665;-67
2021/06/19 01:49:57;;;;;;;21.23;10.17;;;;;;;;;;756991;183;919615;-67
2021/06/19 01:52:23;;;;;;;19.50;9.20;;;;;;;;;;755182;183;920500;-69
2021/06/19 01:54:49;;;;;;;25.90;10.20;;;;;;;;;;758469;184;917799;-67
2021/06/19 01:57:15;;;;;;;20.40;9.83;;;;;;;;;;757027;182;918998;-67
2021/06/19 01:59:41;;;;;;;20.07;8.97;;;;;;;;;;759772;182;920979;-67
2021/06/19 02:02:07;;;;;;;15.90;8.98;;;;;;;;;;766756;182;918998;-67
2021/06/19 02:04:32;;;;;;;17.00;9.37;;;;;;;;;;761439;182;917530;-68
2021/06/19 02:06:58;;;;;;;13.62;9.10;;;;;;;;;;757854;183;919398;-67
2021/06/19 02:09:24;;;;;;;18.83;9.50;;;;;;;;;;759105;183;905651;-67
2021/06/19 02:11:50;;;;;;;17.40;9.57;;;;;;;;;;752543;183;915823;-67
2021/06/19 02:14:16;;;;;;;10.43;8.57;;;;;;;;;;743897;186;1019152;-67
2021/06/19 02:16:42;;;;;;;25.83;9.67;;;;;;;;;;745676;186;1021059;-67
2021/06/19 02:19:08;;;;;;;16.70;9.87;;;;;;;;;;750348;186;916551;-67
2021/06/19 02:21:34;;;;;;;16.27;9.73;;;;;;;;;;757933;183;915883;-69
2021/06/19 02:24:00;;;;;;;22.33;9.40;;;;;;;;;;755552;184;1018102;-67
2021/06/19 02:26:26;;;;;;;14.60;9.50;;;;;;;;;;765622;182;915637;-67
2021/06/19 02:28:52;;;;;;;33.73;9.50;;;;;;;;;;756685;183;918890;-67
2021/06/19 02:31:19;;;;;;;19.37;10.07;;;;;;;;;;758344;181;916240;-67
2021/06/19 02:33:46;;;;;;;16.53;9.33;;;;;;;;;;764670;182;916077;-67
2021/06/19 02:36:09;;;;;;;22.47;9.83;;;;;;;;;;760062;182;915913;-67
2021/06/19 02:38:35;;;;;;;23.90;9.27;;;;;;;;;;760646;181;920585;-67
2021/06/19 02:41:01;;;;;;;17.52;10.20;;;;;;;;;;763914;182;915292;-67
2021/06/19 02:43:27;;;;;;;19.13;9.13;;;;;;;;;;767744;179;919447;-68
2021/06/19 02:45:53;;;;;;;13.37;8.67;;;;;;;;;;762305;183;920555;-67
2021/06/19 02:48:18;;;;;;;18.30;10.80;;;;;;;;;;761472;182;919481;-67
2021/06/19 02:50:44;;;;;;;18.60;9.20;;;;;;;;;;767733;182;918735;-67
2021/06/19 02:53:12;;;;;;;14.00;9.10;;;;;;;;;;760634;183;919426;-67
2021/06/19 02:55:36;;;;;;;26.65;9.30;;;;;;;;;;762785;183;920231;-67
2021/06/19 02:58:02;;;;;;;15.27;8.80;;;;;;;;;;765055;182;1021387;-67
2021/06/19 03:00:28;;;;;;;22.80;10.27;;;;;;;;;;753465;183;919335;-67
2021/06/19 03:02:53;;;;;;;24.33;9.20;;;;;;;;;;758312;183;918731;-67
2021/06/19 03:05:19;;;;;;;23.27;10.60;;;;;;;;;;765305;182;919962;-67
2021/06/19 03:07:45;;;;;;;21.53;10.63;;;;;;;;;;761220;183;918871;-67
2021/06/19 03:10:11;;;;;;;17.17;8.23;;;;;;;;;;759831;182;918828;-67
2021/06/19 03:12:37;;;;;;;34.00;10.27;;;;;;;;;;759463;182;1021869;-67
2021/06/19 03:15:04;;;;;;;26.13;9.10;;;;;;;;;;767563;183;920195;-68
2021/06/19 03:17:29;;;;;;;26.17;9.90;;;;;;;;;;760736;183;1022130;-67
2021/06/19 03:19:55;;;;;;;21.37;8.97;;;;;;;;;;755307;184;919384;-67
2021/06/19 03:22:21;;;;;;;18.10;9.70;;;;;;;;;;763122;183;920186;-67
2021/06/19 03:24:47;;;;;;;14.57;9.97;;;;;;;;;;761383;183;920334;-67
2021/06/19 03:27:13;;;;;;;21.83;10.30;;;;;;;;;;758422;183;913331;-67
2021/06/19 03:29:39;;;;;;;19.57;14.30;;;;;;;;;;766290;182;917493;-67
2021/06/19 03:32:05;;;;;;;20.43;14.97;;;;;;;;;;757017;182;918582;-67
2021/06/19 03:34:31;;;;;;;21.37;16.45;;;;;;;;;;756461;182;1027339;-67
2021/06/19 03:37:00;;;;;;;26.03;19.00;;;;;;;;;;752452;184;920426;-69
2021/06/19 03:39:27;;;;;;;23.90;19.20;;;;;;;;;;762240;183;919334;-68
2021/06/19 03:41:53;;;;;;;33.93;20.63;;;;;;;;;;760375;182;920089;-67
2021/06/19 03:44:18;;;;;;;30.00;19.67;;;;;;;;;;760127;182;919186;-68
2021/06/19 03:46:44;;;;;;;23.67;18.07;;;;;;;;;;764226;183;919520;-68
2021/06/19 03:49:10;;;;;;;26.03;20.47;;;;;;;;;;758728;183;918717;-68
2021/06/19 03:51:36;;;;;;;24.90;19.97;;;;;;;;;;758596;181;919148;-69
2021/06/19 03:54:02;;;;;;;30.27;19.60;;;;;;;;;;761834;183;918923;-68
2021/06/19 03:56:28;;;;;;;25.03;20.57;;;;;;;;;;760030;183;920497;-69
2021/06/19 03:58:54;;;;;;;30.40;20.03;;;;;;;;;;763188;182;918469;-68
2021/06/19 04:01:19;;;;;;;26.83;19.83;;;;;;;;;;762020;182;918241;-68
2021/06/19 04:03:45;;;;;;;26.33;19.57;;;;;;;;;;766559;182;915522;-69
2021/06/19 04:06:11;;;;;;;22.53;19.63;;;;;;;;;;761318;182;919407;-70
2021/06/19 04:08:37;;;;;;;26.73;19.60;;;;;;;;;;760822;182;918700;-70
2021/06/19 04:11:03;;;;;;;24.60;20.37;;;;;;;;;;764615;183;919653;-69
2021/06/19 04:13:29;;;;;;;22.67;19.90;;;;;;;;;;761197;182;919379;-69
2021/06/19 04:15:54;;;;;;;27.07;18.97;;;;;;;;;;760034;182;931256;-69
2021/06/19 04:18:20;;;;;;;26.73;19.70;;;;;;;;;;765972;182;918905;-69
2021/06/19 04:20:46;;;;;;;24.80;18.90;;;;;;;;;;764128;182;918640;-69
2021/06/19 04:23:12;;;;;;;21.50;17.70;;;;;;;;;;758753;183;919780;-69
2021/06/19 04:25:38;;;;;;;23.43;18.27;;;;;;;;;;760259;182;918221;-70
2021/06/19 04:28:04;;;;;;;21.03;18.27;;;;;;;;;;760700;182;919375;-69
2021/06/19 04:30:30;;;;;;;19.20;16.10;;;;;;;;;;761186;182;921664;-70
2021/06/19 04:32:55;;;;;;;19.90;16.60;;;;;;;;;;760357;182;922219;-70
2021/06/19 04:35:21;;;;;;;20.53;17.13;;;;;;;;;;766475;182;921194;-71
2021/06/19 04:37:47;;;;;;;20.90;17.27;;;;;;;;;;760221;182;921245;-71
2021/06/19 04:40:27;;;;;;;25.13;15.63;;;;;;;;;;760628;182;917282;-70
2021/06/19 04:42:55;;;;;;;17.30;15.60;;;;;;;;;;764807;182;913173;-70
2021/06/19 04:45:11;;;;;;;17.20;15.20;;;;;;;;;;757320;183;916974;-70
2021/06/19 04:47:38;;;;;;;18.37;14.75;;;;;;;;;;756011;183;1023409;-72
2021/06/19 04:50:03;;;;;;;19.03;15.67;;;;;;;;;;757746;183;914268;-69
2021/06/19 04:52:30;;;;;;;19.73;16.13;;;;;;;;;;765136;182;914467;-71
2021/06/19 04:54:56;;;;;;;16.23;14.53;;;;;;;;;;762071;182;918363;-71
2021/06/19 04:57:22;;;;;;;20.27;15.20;;;;;;;;;;759731;182;920130;-70
2021/06/19 04:59:48;;;;;;;20.40;15.60;;;;;;;;;;763872;183;914704;-72
2021/06/19 05:02:15;;;;;;;17.43;14.30;;;;;;;;;;756922;182;921223;-72
2021/06/19 05:04:40;;;;;;;17.03;14.60;;;;;;;;;;761814;182;922670;-72
2021/06/19 05:07:05;;;;;;;17.93;13.97;;;;;;;;;;767218;182;915425;-72
2021/06/19 05:09:31;;;;;;;17.07;15.30;;;;;;;;;;757304;183;917401;-70
2021/06/19 05:11:57;;;;;;;15.83;14.23;;;;;;;;;;758581;183;918690;-72
2021/06/19 05:14:23;;;;;;;17.27;14.27;;;;;;;;;;761608;183;915675;-70
2021/06/19 05:16:49;;;;;;;15.63;14.00;;;;;;;;;;765706;182;910689;-73
2021/06/19 05:19:17;;;;;;;15.53;13.93;;;;;;;;;;759729;182;908788;-73
2021/06/19 05:21:41;;;;;;;18.27;14.00;;;;;;;;;;759793;182;909756;-72
2021/06/19 05:24:08;;;;;;;14.67;13.17;;;;;;;;;;764121;182;908072;-72
2021/06/19 05:26:33;;;;;;;15.70;13.10;;;;;;;;;;762978;183;919582;-74
2021/06/19 05:28:59;;;;;;;15.50;12.63;;;;;;;;;;757252;183;912217;-73
2021/06/19 05:31:26;;;;;;;18.00;13.53;;;;;;;;;;767851;182;907789;-73
2021/06/19 05:33:52;;;;;;;17.07;12.93;;;;;;;;;;765321;182;918871;-75
2021/06/19 05:36:18;;;;;;;14.97;13.40;;;;;;;;;;752568;183;1836257;-72
2021/06/19 05:38:44;;;;;;;13.10;11.80;;;;;;;;;;753161;185;919462;-75
2021/06/19 05:41:09;;;;;;;14.40;12.90;;;;;;;;;;760045;183;920629;-73
2021/06/19 05:43:35;;;;;;;13.47;11.87;;;;;;;;;;759507;182;918541;-71
2021/06/19 05:46:01;;;;;;;18.73;12.70;;;;;;;;;;760353;182;918883;-73
2021/06/19 05:48:27;;;;;;;13.40;12.03;;;;;;;;;;765417;182;919387;-73
2021/06/19 05:50:53;;;;;;;23.00;12.53;;;;;;;;;;759571;182;919883;-74
2021/06/19 05:53:19;;;;;;;13.37;11.00;;;;;;;;;;758760;182;918615;-73
2021/06/19 05:55:45;;;;;;;15.90;12.40;;;;;;;;;;762640;183;919119;-75
2021/06/19 05:58:10;;;;;;;13.73;11.40;;;;;;;;;;757865;183;919237;-72
2021/06/19 06:00:36;;;;;;;16.83;11.53;;;;;;;;;;760557;183;919786;-76
2021/06/19 06:03:02;;;;;;;16.40;11.60;;;;;;;;;;766009;183;919631;-76
2021/06/19 06:05:28;;;;;;;12.57;11.27;;;;;;;;;;758040;182;919030;-73
2021/06/19 06:07:55;;;;;;;16.60;11.40;;;;;;;;;;760546;182;919074;-73
2021/06/19 06:10:20;;;;;;;11.40;9.40;;;;;;;;;;760418;182;919335;-73
2021/06/19 06:12:46;;;;;;;14.83;11.43;;;;;;;;;;765487;182;918828;-74
2021/06/19 06:15:12;;;;;;;13.67;10.47;;;;;;;;;;761535;180;921866;-75
2021/06/19 06:17:38;;;;;;;15.53;11.43;;;;;;;;;;761998;182;918683;-72
2021/06/19 06:20:04;;;;;;;14.57;11.10;;;;;;;;;;765969;182;916243;-74
2021/06/19 06:22:30;;;;;;;13.83;10.57;;;;;;;;;;764011;183;919157;-74
2021/06/19 06:24:56;;;;;;;17.33;10.90;;;;;;;;;;758262;183;919196;-73
2021/06/19 06:27:22;;;;;;;12.40;10.30;;;;;;;;;;748905;186;919714;-74
2021/06/19 06:29:47;;;;;;;14.37;10.37;;;;;;;;;;739444;187;919245;-75
2021/06/19 06:32:13;;;;;;;12.63;9.57;;;;;;;;;;738209;186;1017977;-72
2021/06/19 06:34:39;;;;;;;13.03;9.50;;;;;;;;;;751222;186;864510;-72
2021/06/19 06:37:07;;;;;;;11.67;9.60;;;;;;;;;;764559;183;917949;-74
2021/06/19 06:39:32;;;;;;;12.60;11.30;;;;;;;;;;760595;182;918564;-78
2021/06/19 06:41:58;;;;;;;11.67;9.17;;;;;;;;;;762112;183;919873;-74
2021/06/19 06:44:22;;;;;;;13.17;10.10;;;;;;;;;;763225;183;1021436;-72
2021/06/19 06:46:48;;;;;;;12.97;9.93;;;;;;;;;;762297;182;881372;-73
2021/06/19 06:49:14;;;;;;;13.27;9.87;;;;;;;;;;755253;184;918988;-73
2021/06/19 06:51:40;;;;;;;10.47;9.37;;;;;;;;;;765159;184;919331;-72
2021/06/19 06:54:06;;;;;;;15.23;9.63;;;;;;;;;;758219;182;919009;-72
2021/06/19 06:56:32;;;;;;;10.70;9.60;;;;;;;;;;759069;182;918428;-72
2021/06/19 06:58:57;;;;;;;10.03;9.03;;;;;;;;;;765784;182;922005;-74
2021/06/19 07:01:23;;;;;;;9.60;8.20;;;;;;;;;;763816;182;755973;-75
2021/06/19 07:03:50;;;;;;;9.13;8.27;;;;;;;;;;764640;182;626636;-72
2021/06/19 07:06:15;;;;;;;11.60;9.10;;;;;;;;;;755463;183;918778;-73
2021/06/19 07:08:41;;;;;;;12.40;8.40;;;;;;;;;;769104;182;650240;-72
2021/06/19 07:11:07;;;;;;;11.30;8.80;;;;;;;;;;767600;182;631736;-73
2021/06/19 07:13:33;;;;;;;10.80;7.80;;;;;;;;;;759255;184;618548;-75
2021/06/19 07:15:58;;;;;;;10.93;8.33;;;;;;;;;;758703;184;626441;-74
2021/06/19 07:18:24;;;;;;;11.70;8.17;;;;;;;;;;764064;182;619423;-71
2021/06/19 07:20:50;;;;;;;8.87;7.97;;;;;;;;;;763920;182;626410;-73
2021/06/19 07:23:16;;;;;;;8.97;7.80;;;;;;;;;;768473;183;630567;-73
2021/06/19 07:25:42;;;;;;;13.03;9.10;;;;;;;;;;761583;182;628659;-72
2021/06/19 07:28:08;;;;;;;9.60;8.00;;;;;;;;;;763872;183;624110;-73
2021/06/19 07:30:34;;;;;;;8.90;6.90;;;;;;;;;;765567;183;623690;-72
2021/06/19 07:32:59;;;;;;;8.03;5.90;;;;;;;;;;771912;179;623268;-73
2021/06/19 07:35:25;;;;;;;8.70;6.67;;;;;;;;;;764597;183;624600;-73
2021/06/19 07:37:51;;;;;;;10.60;6.83;;;;;;;;;;763973;182;631264;-74
2021/06/19 07:40:17;;;;;;;7.90;6.17;;;;;;;;;;768548;183;666163;-73
2021/06/19 07:42:43;;;;;;;8.63;7.00;;;;;;;;;;762046;182;624769;-73
2021/06/19 07:45:09;;;;;;;8.63;7.73;;;;;;;;;;764290;182;919280;-72
2021/06/19 07:47:35;;;;;;;10.73;7.07;;;;;;;;;;765550;183;622995;-71
2021/06/19 07:50:00;;;;;;;8.10;7.37;;;;;;;;;;762851;183;624065;-73
2021/06/19 07:52:26;;;;;;;9.20;7.87;;;;;;;;;;759717;183;623268;-74
2021/06/19 07:54:52;;;;;;;8.60;7.03;;;;;;;;;;765613;183;714233;-72
2021/06/19 07:57:18;;;;;;;12.07;7.37;;;;;;;;;;765319;182;817065;-70
2021/06/19 07:59:44;;;;;;;7.63;6.80;;;;;;;;;;766079;183;638335;-72
2021/06/19 08:02:10;;;;;;;11.40;6.87;;;;;;;;;;765621;183;635639;-72
2021/06/19 08:04:36;;;;;;;7.70;6.70;;;;;;;;;;767880;183;626235;-72
2021/06/19 08:07:02;;;;;;;7.53;5.87;;;;;;;;;;760122;182;630450;-73
2021/06/19 08:09:28;;;;;;;5.83;4.80;;;;;;;;;;765888;182;631106;-72
2021/06/19 08:11:54;;;;;;;9.83;6.03;;;;;;;;;;768048;183;630188;-73
2021/06/19 08:14:21;;;;;;;6.70;4.50;;;;;;;;;;765548;183;634504;-74
2021/06/19 08:16:48;;;;;;;5.50;5.00;;;;;;;;;;766507;183;638144;-72
2021/06/19 08:19:12;;;;;;;6.00;4.70;;;;;;;;;;768379;183;626652;-74
2021/06/19 08:21:38;;;;;;;6.80;4.97;;;;;;;;;;762646;183;713081;-72
2021/06/19 08:24:04;;;;;;;8.53;4.83;;;;;;;;;;762485;182;794172;-73
2021/06/19 08:26:30;;;;;;;6.90;5.70;;;;;;;;;;762807;183;712723;-72
2021/06/19 08:28:55;;;;;;;5.20;4.63;;;;;;;;;;754244;185;634834;-72
2021/06/19 08:31:21;;;;;;;5.83;5.03;;;;;;;;;;756740;184;623423;-71
2021/06/19 08:33:47;;;;;;;11.43;5.30;;;;;;;;;;749636;186;623599;-73
2021/06/19 08:36:13;;;;;;;8.00;5.53;;;;;;;;;;767470;183;624015;-71
2021/06/19 08:38:41;;;;;;;5.90;5.30;;;;;;;;;;760986;183;627199;-74
2021/06/19 08:41:05;;;;;;;8.63;5.90;;;;;;;;;;761893;183;632165;-73
2021/06/19 08:43:30;;;;;;;6.70;6.00;;;;;;;;;;762516;184;616171;-74
2021/06/19 08:45:56;;;;;;;5.60;4.90;;;;;;;;;;761311;183;641942;-74
2021/06/19 08:48:22;;;;;;;8.57;5.13;;;;;;;;;;764741;183;629661;-73
2021/06/19 08:50:48;;;;;;;8.63;5.50;;;;;;;;;;769126;182;625143;-74
2021/06/19 08:53:16;;;;;;;11.40;6.20;;;;;;;;;;767474;183;617694;-74
2021/06/19 08:55:40;;;;;;;8.83;6.00;;;;;;;;;;765084;182;637462;-74
2021/06/19 08:58:05;;;;;;;7.60;4.97;;;;;;;;;;765311;182;621571;-75
2021/06/19 09:00:31;;;;;;;8.20;6.00;;;;;;;;;;768793;183;660649;-73
2021/06/19 09:02:57;;;;;;;7.10;6.00;;;;;;;;;;760305;183;741916;-72
2021/06/19 09:05:24;;;;;;;9.10;6.10;;;;;;;;;;764597;183;639677;-72
2021/06/19 09:07:50;;;;;;;9.17;5.50;;;;;;;;;;769047;182;619143;-71
2021/06/19 09:10:15;;;;;;;5.60;5.00;;;;;;;;;;763420;182;620246;-72
2021/06/19 09:12:41;;;;;;;6.23;5.07;;;;;;;;;;766738;182;630088;-72
2021/06/19 09:15:13;;;;;;;5.43;4.90;;;;;;;;;;762949;183;620862;-73
2021/06/19 09:17:39;;;;;;;5.57;4.80;;;;;;;;;;766296;183;630819;-72
2021/06/19 09:20:05;;;;;;;9.43;5.90;;;;;;;;;;763550;182;639552;-72
2021/06/19 09:22:31;;;;;;;9.07;5.70;;;;;;;;;;764376;183;628683;-72
2021/06/19 09:24:57;;;;;;;5.97;5.30;;;;;;;;;;768637;183;620442;-71
2021/06/19 09:27:29;;;;;;;7.43;5.30;;;;;;;;;;765920;182;679603;-71
2021/06/19 09:30:00;;;;;;;6.73;5.23;;;;;;;;;;762557;184;628832;-73
2021/06/19 09:32:26;;;;;;;5.70;5.07;;;;;;;;;;766367;183;624084;-72
2021/06/19 09:34:52;;;;;;;5.37;4.67;;;;;;;;;;764129;183;632576;-71
2021/06/19 09:37:18;;;;;;;8.60;5.47;;;;;;;;;;764540;183;742917;-73
2021/06/19 09:39:44;;;;;;;7.53;5.10;;;;;;;;;;759562;183;643269;-70
2021/06/19 09:42:09;;;;;;;6.00;5.40;;;;;;;;;;765457;184;714550;-73
2021/06/19 09:44:40;;;;;;;6.87;5.50;;;;;;;;;;763439;182;816980;-71
2021/06/19 09:47:05;;;;;;;11.17;4.90;;;;;;;;;;763723;182;636533;-72
2021/06/19 09:49:32;;;;;;;9.90;5.30;;;;;;;;;;767100;182;653626;-74
2021/06/19 09:51:57;;;;;;;6.37;5.10;;;;;;;;;;771373;182;621974;-71
2021/06/19 09:54:23;;;;;;;8.17;5.40;;;;;;;;;;761384;183;649134;-72
2021/06/19 09:56:51;;;;;;;12.20;5.50;;;;;;;;;;756235;184;917657;-71
2021/06/19 09:59:18;;;;;;;5.90;4.83;;;;;;;;;;761362;184;625479;-71
2021/06/19 10:01:44;;;;;;;4.73;4.27;;;;;;;;;;765003;182;638181;-70
2021/06/19 10:04:10;;;;;;;7.80;5.30;;;;;;;;;;768422;182;626173;-71
2021/06/19 10:06:36;;;;;;;9.17;4.70;;;;;;;;;;766136;182;622935;-72
2021/06/19 10:09:01;;;;;;;5.97;4.80;;;;;;;;;;762217;183;619851;-72
2021/06/19 10:11:28;;;;;;;7.00;5.20;;;;;;;;;;762946;183;620151;-72
2021/06/19 10:13:54;;;;;;;8.80;5.93;;;;;;;;;;759679;183;643928;-71
2021/06/19 10:16:20;;;;;;;7.30;4.80;;;;;;;;;;769448;182;623844;-69
2021/06/19 10:18:45;;;;;;;6.13;5.47;;;;;;;;;;762251;183;640754;-72
2021/06/19 10:21:11;;;;;;;6.63;4.97;;;;;;;;;;762714;183;912771;-72
2021/06/19 10:23:37;;;;;;;7.10;5.20;;;;;;;;;;768101;182;626429;-73
2021/06/19 10:26:03;;;;;;;6.00;5.10;;;;;;;;;;760372;182;681377;-71
2021/06/19 10:28:29;;;;;;;6.60;5.70;;;;;;;;;;765677;183;622337;-72
2021/06/19 10:30:55;;;;;;;7.70;5.07;;;;;;;;;;767009;183;633598;-71
2021/06/19 10:33:26;;;;;;;6.60;4.57;;;;;;;;;;764511;182;630600;-71
2021/06/19 10:35:51;;;;;;;7.50;5.03;;;;;;;;;;764268;182;630581;-71
2021/06/19 10:38:19;;;;;;;9.43;5.97;;;;;;;;;;763712;184;628416;-72
2021/06/19 10:40:55;;;;;;;5.97;4.97;;;;;;;;;;770103;182;629965;-70
2021/06/19 10:43:22;;;;;;;7.90;4.93;;;;;;;;;;762362;183;626827;-73
2021/06/19 10:45:46;;;;;;;5.30;4.80;;;;;;;;;;756568;184;640230;-71
2021/06/19 10:48:13;;;;;;;5.27;4.70;;;;;;;;;;757656;184;645284;-72
2021/06/19 10:50:39;;;;;;;5.40;4.73;;;;;;;;;;763138;184;624503;-72
2021/06/19 10:53:06;;;;;;;6.13;5.53;;;;;;;;;;757995;185;815578;-74
2021/06/19 10:55:31;;;;;;;6.90;5.10;;;;;;;;;;761937;183;815319;-71
2021/06/19 10:57:58;;;;;;;6.07;5.47;;;;;;;;;;768841;182;625275;-71
2021/06/19 11:00:26;;;;;;;6.07;5.47;;;;;;;;;;764968;181;916945;-71
2021/06/19 11:02:52;;;;;;;5.70;4.83;;;;;;;;;;764091;183;768387;-71
2021/06/19 11:05:24;;;;;;;6.23;5.00;;;;;;;;;;765070;182;620288;-73
2021/06/19 11:07:54;;;;;;;12.50;5.27;;;;;;;;;;772144;183;627725;-71
2021/06/19 11:10:25;;;;;;;6.73;5.83;;;;;;;;;;767642;183;619851;-74
2021/06/19 11:12:51;;;;;;;10.23;4.97;;;;;;;;;;760834;183;641509;-72
2021/06/19 11:15:19;;;;;;;6.40;5.13;;;;;;;;;;767086;180;628255;-74
2021/06/19 11:17:43;;;;;;;7.13;5.30;;;;;;;;;;768267;182;631619;-72
2021/06/19 11:20:23;;;;;;;7.50;6.33;;;;;;;;;;766018;183;632406;-73
2021/06/19 11:22:54;;;;;;;7.70;5.33;;;;;;;;;;761462;182;625912;-72
2021/06/19 11:25:24;;;;;;;5.93;4.60;;;;;;;;;;764452;182;620022;-73
2021/06/19 11:27:48;;;;;;;5.70;5.10;;;;;;;;;;767984;182;622333;-72
2021/06/19 11:30:19;;;;;;;5.60;4.97;;;;;;;;;;766452;182;618989;-72
2021/06/19 11:32:45;;;;;;;6.03;5.43;;;;;;;;;;763395;182;776487;-71
2021/06/19 11:35:17;;;;;;;5.90;5.30;;;;;;;;;;761509;183;815935;-72
2021/06/19 11:37:48;;;;;;;7.03;5.30;;;;;;;;;;767822;182;624560;-72
2021/06/19 11:40:14;;;;;;;10.07;5.73;;;;;;;;;;764558;184;616160;-70
2021/06/19 11:42:41;;;;;;;6.47;5.77;;;;;;;;;;755890;184;630299;-71
2021/06/19 11:45:07;;;;;;;7.20;6.17;;;;;;;;;;749645;186;620227;-71
2021/06/19 11:47:33;;;;;;;7.37;5.40;;;;;;;;;;768103;183;633007;-73
2021/06/19 11:49:59;;;;;;;7.40;5.70;;;;;;;;;;764478;183;627190;-73
2021/06/19 11:52:24;;;;;;;6.80;5.32;;;;;;;;;;760993;180;632427;-71
2021/06/19 11:54:50;;;;;;;5.63;5.03;;;;;;;;;;768939;182;622447;-72
2021/06/19 11:57:21;;;;;;;8.43;5.57;;;;;;;;;;765612;182;940118;-72
2021/06/19 11:59:47;;;;;;;7.10;5.17;;;;;;;;;;764872;182;919317;-71
2021/06/19 12:02:13;;;;;;;8.40;5.43;;;;;;;;;;757649;183;919568;-69
2021/06/19 12:04:39;;;;;;;5.83;5.20;;;;;;;;;;762800;184;919294;-68
2021/06/19 12:07:04;;;;;;;9.77;5.03;;;;;;;;;;759547;182;919230;-70
2021/06/19 12:09:31;;;;;;;8.90;5.27;;;;;;;;;;759931;182;919605;-69
2021/06/19 12:11:57;;;;;;;8.13;5.20;;;;;;;;;;765393;183;918915;-71
2021/06/19 12:14:24;;;;;;;7.10;6.33;;;;;;;;;;760540;182;922517;-69
2021/06/19 12:16:50;;;;;;;7.90;5.40;;;;;;;;;;761872;182;921328;-70
2021/06/19 12:19:16;;;;;;;6.70;4.60;;;;;;;;;;761389;182;938087;-71
2021/06/19 12:21:41;;;;;;;9.57;5.53;;;;;;;;;;771056;179;781873;-69
2021/06/19 12:24:13;;;;;;;7.77;5.73;;;;;;;;;;761438;182;870689;-72
2021/06/19 12:26:39;;;;;;;6.27;5.50;;;;;;;;;;760767;182;1020953;-72
2021/06/19 12:29:05;;;;;;;6.10;5.50;;;;;;;;;;765708;182;973222;-72
2021/06/19 12:31:30;;;;;;;9.07;4.93;;;;;;;;;;759748;182;906928;-71
2021/06/19 12:33:58;;;;;;;6.80;5.53;;;;;;;;;;759794;182;920117;-71
2021/06/19 12:36:24;;;;;;;8.13;6.40;;;;;;;;;;761670;182;919866;-73
2021/06/19 12:38:50;;;;;;;6.80;5.60;;;;;;;;;;766054;183;913109;-71
2021/06/19 12:41:16;;;;;;;5.80;5.00;;;;;;;;;;759435;182;920619;-72
2021/06/19 12:43:47;;;;;;;8.97;5.40;;;;;;;;;;761608;182;918147;-70
2021/06/19 12:46:15;;;;;;;6.63;5.93;;;;;;;;;;764894;182;915604;-72
2021/06/19 12:48:41;;;;;;;9.90;5.35;;;;;;;;;;758672;182;918851;-73
2021/06/19 12:51:07;;;;;;;5.97;5.37;;;;;;;;;;758159;184;919566;-72
2021/06/19 12:53:34;;;;;;;8.13;5.30;;;;;;;;;;757270;182;919509;-71
2021/06/19 12:56:00;;;;;;;6.40;5.23;;;;;;;;;;768578;180;816643;-70
2021/06/19 12:58:31;;;;;;;6.97;5.72;;;;;;;;;;759794;182;920638;-71
2021/06/19 13:00:57;;;;;;;6.60;5.60;;;;;;;;;;760592;183;918230;-72
2021/06/19 13:03:23;;;;;;;5.90;5.17;;;;;;;;;;766126;183;917418;-71
2021/06/19 13:05:50;;;;;;;7.80;4.83;;;;;;;;;;759923;182;747766;-71
2021/06/19 13:08:16;;;;;;;11.43;5.40;;;;;;;;;;759776;182;912059;-71
2021/06/19 13:10:41;;;;;;;6.50;5.70;;;;;;;;;;759153;183;1018151;-72
2021/06/19 13:13:07;;;;;;;12.20;5.50;;;;;;;;;;770743;181;909266;-70
2021/06/19 13:15:33;;;;;;;6.13;5.20;;;;;;;;;;760331;183;921027;-72
2021/06/19 13:18:00;;;;;;;7.67;6.37;;;;;;;;;;759823;182;909820;-71
2021/06/19 13:20:27;;;;;;;8.90;5.67;;;;;;;;;;764636;182;920068;-72
2021/06/19 13:22:59;;;;;;;7.90;5.30;;;;;;;;;;760724;182;915957;-72
2021/06/19 13:25:25;;;;;;;7.87;6.03;;;;;;;;;;760944;181;913082;-74
2021/06/19 13:27:54;;;;;;;8.70;6.00;;;;;;;;;;757727;183;916729;-71
2021/06/19 13:30:17;;;;;;;8.67;5.30;;;;;;;;;;768931;182;914451;-73
2021/06/19 13:32:49;;;;;;;6.90;5.80;;;;;;;;;;758293;183;914565;-72
2021/06/19 13:35:15;;;;;;;7.70;5.93;;;;;;;;;;740583;187;909195;-73
2021/06/19 13:37:41;;;;;;;7.33;5.50;;;;;;;;;;765416;183;906932;-72
2021/06/19 13:40:08;;;;;;;6.20;5.60;;;;;;;;;;759318;183;909363;-73
2021/06/19 13:42:33;;;;;;;6.70;6.00;;;;;;;;;;759598;182;932592;-74
2021/06/19 13:44:59;;;;;;;8.32;6.62;;;;;;;;;;760599;183;920384;-73
2021/06/19 13:47:25;;;;;;;8.70;5.70;;;;;;;;;;761548;183;920449;-72
2021/06/19 13:49:50;;;;;;;5.83;5.20;;;;;;;;;;762310;182;859904;-72
2021/06/19 13:52:17;;;;;;;6.67;5.23;;;;;;;;;;760757;182;919666;-73
2021/06/19 13:54:43;;;;;;;8.20;5.97;;;;;;;;;;765440;182;920630;-71
2021/06/19 13:57:11;;;;;;;7.50;6.10;;;;;;;;;;754585;183;921097;-72
2021/06/19 13:59:36;;;;;;;8.82;5.18;;;;;;;;;;761722;183;918657;-73
2021/06/19 14:02:02;;;;;;;6.47;5.37;;;;;;;;;;765572;182;1020807;-71
2021/06/19 14:04:29;;;;;;;16.03;6.40;;;;;;;;;;759958;182;919298;-71
2021/06/19 14:06:54;;;;;;;6.17;5.43;;;;;;;;;;757090;184;919605;-73
2021/06/19 14:09:21;;;;;;;7.63;5.77;;;;;;;;;;763374;182;920903;-70
2021/06/19 14:11:47;;;;;;;6.37;5.53;;;;;;;;;;756735;184;938380;-72